sensor_id;sensor_type;location;lat;lon;timestamp;temperature;humidity
14378;DHT22;7272;53.668;9.578;2024-03-08T00:01:04;3.40;99.90
14378;DHT22;7272;53.668;9.578;2024-03-08T00:04:07;3.40;99.90
14378;DHT22;7272;53.668;9.578;2024-03-08T00:07:09;3.30;99.90
14378;DHT22;7272;53.668;9.578;2024-03-08T00:10:11;3.40;99.90
14378;DHT22;7272;53.668;9.578;2024-03-08T00:13:14;3.30;99.90
14378;DHT22;7272;53.668;9.578;2024-03-08T00:16:15;3.30;99.90
14378;DHT22;7272;53.668;9.578;2024-03-08T00:19:16;3.30;99.90
14378;DHT22;7272;53.668;9.578;2024-03-08T00:22:17;3.30;99.90
14378;DHT22;7272;53.668;9.578;2024-03-08T00:25:18;3.20;99.90
14378;DHT22;7272;53.668;9.578;2024-03-08T00:28:21;3.30;99.90
14378;DHT22;7272;53.668;9.578;2024-03-08T00:31:22;3.20;99.90
14378;DHT22;7272;53.668;9.578;2024-03-08T00:34:23;3.20;99.90
14378;DHT22;7272;53.668;9.578;2024-03-08T00:37:25;3.20;99.90
14378;DHT22;7272;53.668;9.578;2024-03-08T00:40:26;3.20;99.90
14378;DHT22;7272;53.668;9.578;2024-03-08T00:43:30;3.10;99.90
14378;DHT22;7272;53.668;9.578;2024-03-08T00:46:31;3.10;99.90
14378;DHT22;7272;53.668;9.578;2024-03-08T00:49:32;3.10;99.90
14378;DHT22;7272;53.668;9.578;2024-03-08T00:52:33;3.00;99.90
14378;DHT22;7272;53.668;9.578;2024-03-08T00:55:35;3.00;99.90
14378;DHT22;7272;53.668;9.578;2024-03-08T00:58:37;2.90;99.90
14378;DHT22;7272;53.668;9.578;2024-03-08T01:01:39;2.90;99.90
14378;DHT22;7272;53.668;9.578;2024-03-08T01:04:40;2.80;99.90
14378;DHT22;7272;53.668;9.578;2024-03-08T01:07:41;2.80;99.90
14378;DHT22;7272;53.668;9.578;2024-03-08T01:10:43;2.70;99.90
14378;DHT22;7272;53.668;9.578;2024-03-08T01:13:45;2.70;99.90
14378;DHT22;7272;53.668;9.578;2024-03-08T01:16:48;2.70;99.90
14378;DHT22;7272;53.668;9.578;2024-03-08T01:19:49;2.60;99.90
14378;DHT22;7272;53.668;9.578;2024-03-08T01:22:50;2.50;99.90
14378;DHT22;7272;53.668;9.578;2024-03-08T01:25:52;2.50;99.90
14378;DHT22;7272;53.668;9.578;2024-03-08T01:28:58;2.50;99.90
14378;DHT22;7272;53.668;9.578;2024-03-08T01:31:59;2.50;99.90
14378;DHT22;7272;53.668;9.578;2024-03-08T01:35:02;2.50;99.90
14378;DHT22;7272;53.668;9.578;2024-03-08T01:38:04;2.40;99.90
14378;DHT22;7272;53.668;9.578;2024-03-08T01:41:05;2.40;99.90
14378;DHT22;7272;53.668;9.578;2024-03-08T01:44:07;2.30;99.90
14378;DHT22;7272;53.668;9.578;2024-03-08T01:47:10;2.30;99.90
14378;DHT22;7272;53.668;9.578;2024-03-08T01:50:12;2.20;99.90
14378;DHT22;7272;53.668;9.578;2024-03-08T01:53:13;2.20;99.90
14378;DHT22;7272;53.668;9.578;2024-03-08T01:56:16;2.20;99.90
14378;DHT22;7272;53.668;9.578;2024-03-08T01:59:19;2.20;99.90
14378;DHT22;7272;53.668;9.578;2024-03-08T02:02:20;2.20;99.90
14378;DHT22;7272;53.668;9.578;2024-03-08T02:05:23;2.30;99.90
14378;DHT22;7272;53.668;9.578;2024-03-08T02:08:24;2.30;99.90
14378;DHT22;7272;53.668;9.578;2024-03-08T02:11:26;2.30;99.90
14378;DHT22;7272;53.668;9.578;2024-03-08T02:14:28;2.30;99.90
14378;DHT22;7272;53.668;9.578;2024-03-08T02:17:29;2.30;99.90
14378;DHT22;7272;53.668;9.578;2024-03-08T02:20:32;2.20;99.90
14378;DHT22;7272;53.668;9.578;2024-03-08T02:23:33;2.20;99.90
14378;DHT22;7272;53.668;9.578;2024-03-08T02:26:35;2.30;99.90
14378;DHT22;7272;53.668;9.578;2024-03-08T02:29:37;2.30;99.90
14378;DHT22;7272;53.668;9.578;2024-03-08T02:32:38;2.30;99.90
14378;DHT22;7272;53.668;9.578;2024-03-08T02:35:40;2.30;99.90
14378;DHT22;7272;53.668;9.578;2024-03-08T02:38:41;2.30;99.90
14378;DHT22;7272;53.668;9.578;2024-03-08T02:41:42;2.30;99.90
14378;DHT22;7272;53.668;9.578;2024-03-08T02:44:43;2.30;99.90
14378;DHT22;7272;53.668;9.578;2024-03-08T02:47:45;2.30;99.90
14378;DHT22;7272;53.668;9.578;2024-03-08T02:50:47;2.30;99.90
14378;DHT22;7272;53.668;9.578;2024-03-08T02:53:48;2.20;99.90
14378;DHT22;7272;53.668;9.578;2024-03-08T02:56:52;2.20;99.90
14378;DHT22;7272;53.668;9.578;2024-03-08T02:59:53;2.30;99.90
14378;DHT22;7272;53.668;9.578;2024-03-08T03:02:54;2.30;99.90
14378;DHT22;7272;53.668;9.578;2024-03-08T03:05:56;2.20;99.90
14378;DHT22;7272;53.668;9.578;2024-03-08T03:08:57;2.20;99.90
14378;DHT22;7272;53.668;9.578;2024-03-08T03:11:59;2.20;99.90
14378;DHT22;7272;53.668;9.578;2024-03-08T03:15:00;2.20;99.90
14378;DHT22;7272;53.668;9.578;2024-03-08T03:18:02;2.20;99.90
14378;DHT22;7272;53.668;9.578;2024-03-08T03:21:04;2.20;99.90
14378;DHT22;7272;53.668;9.578;2024-03-08T03:24:08;2.20;99.90
14378;DHT22;7272;53.668;9.578;2024-03-08T03:27:10;2.10;99.90
14378;DHT22;7272;53.668;9.578;2024-03-08T03:30:12;2.00;99.90
14378;DHT22;7272;53.668;9.578;2024-03-08T03:33:31;1.90;99.90
14378;DHT22;7272;53.668;9.578;2024-03-08T03:36:35;1.90;99.90
14378;DHT22;7272;53.668;9.578;2024-03-08T03:39:39;1.90;99.90
14378;DHT22;7272;53.668;9.578;2024-03-08T03:42:49;1.90;99.90
14378;DHT22;7272;53.668;9.578;2024-03-08T03:45:50;1.90;99.90
14378;DHT22;7272;53.668;9.578;2024-03-08T03:48:51;1.80;99.90
14378;DHT22;7272;53.668;9.578;2024-03-08T03:51:53;1.80;99.90
14378;DHT22;7272;53.668;9.578;2024-03-08T03:54:54;1.80;99.90
14378;DHT22;7272;53.668;9.578;2024-03-08T03:57:56;1.70;99.90
14378;DHT22;7272;53.668;9.578;2024-03-08T04:00:59;1.70;99.90
14378;DHT22;7272;53.668;9.578;2024-03-08T04:04:00;1.80;99.90
14378;DHT22;7272;53.668;9.578;2024-03-08T04:07:02;1.80;99.90
14378;DHT22;7272;53.668;9.578;2024-03-08T04:10:05;1.80;99.90
14378;DHT22;7272;53.668;9.578;2024-03-08T04:13:07;1.70;99.90
14378;DHT22;7272;53.668;9.578;2024-03-08T04:16:10;1.70;99.90
14378;DHT22;7272;53.668;9.578;2024-03-08T04:19:12;1.70;99.90
14378;DHT22;7272;53.668;9.578;2024-03-08T04:22:14;1.70;99.90
14378;DHT22;7272;53.668;9.578;2024-03-08T04:25:17;1.60;99.90
14378;DHT22;7272;53.668;9.578;2024-03-08T04:28:18;1.60;99.90
14378;DHT22;7272;53.668;9.578;2024-03-08T04:31:19;1.60;99.90
14378;DHT22;7272;53.668;9.578;2024-03-08T04:34:22;1.60;99.90
14378;DHT22;7272;53.668;9.578;2024-03-08T04:37:24;1.50;99.90
14378;DHT22;7272;53.668;9.578;2024-03-08T04:40:25;1.60;99.90
14378;DHT22;7272;53.668;9.578;2024-03-08T04:43:27;1.60;99.90
14378;DHT22;7272;53.668;9.578;2024-03-08T04:46:31;1.50;99.90
14378;DHT22;7272;53.668;9.578;2024-03-08T04:49:32;1.50;99.90
14378;DHT22;7272;53.668;9.578;2024-03-08T04:52:35;1.50;99.90
14378;DHT22;7272;53.668;9.578;2024-03-08T04:55:37;1.60;99.90
14378;DHT22;7272;53.668;9.578;2024-03-08T04:58:38;1.50;99.90
14378;DHT22;7272;53.668;9.578;2024-03-08T05:01:39;1.50;99.90
14378;DHT22;7272;53.668;9.578;2024-03-08T05:04:40;1.50;99.90
14378;DHT22;7272;53.668;9.578;2024-03-08T05:07:43;1.50;99.90
14378;DHT22;7272;53.668;9.578;2024-03-08T05:10:46;1.50;99.90
14378;DHT22;7272;53.668;9.578;2024-03-08T05:13:47;1.50;99.90
14378;DHT22;7272;53.668;9.578;2024-03-08T05:16:49;1.40;99.90
14378;DHT22;7272;53.668;9.578;2024-03-08T05:19:50;1.40;99.90
14378;DHT22;7272;53.668;9.578;2024-03-08T05:22:52;1.40;99.90
14378;DHT22;7272;53.668;9.578;2024-03-08T05:25:53;1.40;99.90
14378;DHT22;7272;53.668;9.578;2024-03-08T05:28:54;1.30;99.90
14378;DHT22;7272;53.668;9.578;2024-03-08T05:31:57;1.40;99.90
14378;DHT22;7272;53.668;9.578;2024-03-08T05:35:00;1.30;99.90
14378;DHT22;7272;53.668;9.578;2024-03-08T05:38:02;1.30;99.90
14378;DHT22;7272;53.668;9.578;2024-03-08T05:41:03;1.30;99.90
14378;DHT22;7272;53.668;9.578;2024-03-08T05:44:05;1.40;99.90
14378;DHT22;7272;53.668;9.578;2024-03-08T05:47:07;1.30;99.90
14378;DHT22;7272;53.668;9.578;2024-03-08T05:50:08;1.40;99.90
14378;DHT22;7272;53.668;9.578;2024-03-08T05:53:12;1.30;99.90
14378;DHT22;7272;53.668;9.578;2024-03-08T05:56:14;1.30;99.90
14378;DHT22;7272;53.668;9.578;2024-03-08T05:59:15;1.30;99.90
14378;DHT22;7272;53.668;9.578;2024-03-08T06:02:16;1.30;99.90
14378;DHT22;7272;53.668;9.578;2024-03-08T06:05:20;1.30;99.90
14378;DHT22;7272;53.668;9.578;2024-03-08T06:08:21;1.30;99.90
14378;DHT22;7272;53.668;9.578;2024-03-08T06:11:23;1.30;99.90
14378;DHT22;7272;53.668;9.578;2024-03-08T06:14:24;1.30;99.90
14378;DHT22;7272;53.668;9.578;2024-03-08T06:17:25;1.30;99.90
14378;DHT22;7272;53.668;9.578;2024-03-08T06:20:26;1.30;99.90
14378;DHT22;7272;53.668;9.578;2024-03-08T06:23:28;1.30;99.90
14378;DHT22;7272;53.668;9.578;2024-03-08T06:26:29;1.40;99.90
14378;DHT22;7272;53.668;9.578;2024-03-08T06:29:31;1.40;99.90
14378;DHT22;7272;53.668;9.578;2024-03-08T06:32:32;1.40;99.90
14378;DHT22;7272;53.668;9.578;2024-03-08T06:35:36;1.30;99.90
14378;DHT22;7272;53.668;9.578;2024-03-08T06:38:39;1.40;99.90
14378;DHT22;7272;53.668;9.578;2024-03-08T06:41:43;1.40;99.90
14378;DHT22;7272;53.668;9.578;2024-03-08T06:44:45;1.40;99.90
14378;DHT22;7272;53.668;9.578;2024-03-08T06:47:50;1.50;99.90
14378;DHT22;7272;53.668;9.578;2024-03-08T06:50:51;1.50;99.90
14378;DHT22;7272;53.668;9.578;2024-03-08T06:53:53;1.60;99.90
14378;DHT22;7272;53.668;9.578;2024-03-08T06:56:54;1.70;99.90
14378;DHT22;7272;53.668;9.578;2024-03-08T06:59:55;1.80;99.90
14378;DHT22;7272;53.668;9.578;2024-03-08T07:02:57;1.80;99.90
14378;DHT22;7272;53.668;9.578;2024-03-08T07:06:01;1.80;99.90
14378;DHT22;7272;53.668;9.578;2024-03-08T07:09:04;1.90;99.90
14378;DHT22;7272;53.668;9.578;2024-03-08T07:12:05;1.90;99.90
14378;DHT22;7272;53.668;9.578;2024-03-08T07:15:07;2.00;99.90
14378;DHT22;7272;53.668;9.578;2024-03-08T07:18:08;2.10;99.90
14378;DHT22;7272;53.668;9.578;2024-03-08T07:21:15;2.20;99.90
14378;DHT22;7272;53.668;9.578;2024-03-08T07:24:17;2.20;99.90
14378;DHT22;7272;53.668;9.578;2024-03-08T07:27:38;2.20;99.90
14378;DHT22;7272;53.668;9.578;2024-03-08T07:30:39;2.30;99.90
14378;DHT22;7272;53.668;9.578;2024-03-08T07:33:56;2.30;99.90
14378;DHT22;7272;53.668;9.578;2024-03-08T07:36:59;2.40;99.90
14378;DHT22;7272;53.668;9.578;2024-03-08T07:40:01;2.50;99.90
14378;DHT22;7272;53.668;9.578;2024-03-08T07:43:02;2.50;99.90
14378;DHT22;7272;53.668;9.578;2024-03-08T07:46:04;2.60;99.90
14378;DHT22;7272;53.668;9.578;2024-03-08T07:49:05;2.70;99.90
14378;DHT22;7272;53.668;9.578;2024-03-08T07:52:07;2.80;99.90
14378;DHT22;7272;53.668;9.578;2024-03-08T07:55:09;2.90;99.90
14378;DHT22;7272;53.668;9.578;2024-03-08T07:58:11;3.00;99.90
14378;DHT22;7272;53.668;9.578;2024-03-08T08:01:16;3.10;99.90
14378;DHT22;7272;53.668;9.578;2024-03-08T08:04:17;3.20;99.90
14378;DHT22;7272;53.668;9.578;2024-03-08T08:07:19;3.30;99.90
14378;DHT22;7272;53.668;9.578;2024-03-08T08:10:21;3.60;99.90
14378;DHT22;7272;53.668;9.578;2024-03-08T08:13:23;3.80;99.90
14378;DHT22;7272;53.668;9.578;2024-03-08T08:16:24;4.10;99.90
14378;DHT22;7272;53.668;9.578;2024-03-08T08:19:26;4.20;99.90
14378;DHT22;7272;53.668;9.578;2024-03-08T08:22:28;4.30;99.90
14378;DHT22;7272;53.668;9.578;2024-03-08T08:25:29;4.50;99.90
14378;DHT22;7272;53.668;9.578;2024-03-08T08:28:31;4.70;99.90
14378;DHT22;7272;53.668;9.578;2024-03-08T08:31:32;4.90;99.90
14378;DHT22;7272;53.668;9.578;2024-03-08T08:34:33;5.00;99.90
14378;DHT22;7272;53.668;9.578;2024-03-08T08:37:35;5.10;99.90
14378;DHT22;7272;53.668;9.578;2024-03-08T08:40:38;5.00;99.90
14378;DHT22;7272;53.668;9.578;2024-03-08T08:43:39;5.00;99.90
14378;DHT22;7272;53.668;9.578;2024-03-08T08:46:44;5.10;99.90
14378;DHT22;7272;53.668;9.578;2024-03-08T08:49:45;5.30;99.90
14378;DHT22;7272;53.668;9.578;2024-03-08T08:52:47;5.40;99.90
14378;DHT22;7272;53.668;9.578;2024-03-08T08:55:49;5.60;99.90
14378;DHT22;7272;53.668;9.578;2024-03-08T08:58:50;5.60;99.90
14378;DHT22;7272;53.668;9.578;2024-03-08T09:01:51;5.60;99.90
14378;DHT22;7272;53.668;9.578;2024-03-08T09:04:54;5.70;99.90
14378;DHT22;7272;53.668;9.578;2024-03-08T09:07:55;5.80;99.90
14378;DHT22;7272;53.668;9.578;2024-03-08T09:10:57;5.80;99.90
14378;DHT22;7272;53.668;9.578;2024-03-08T09:14:00;5.90;99.90
14378;DHT22;7272;53.668;9.578;2024-03-08T09:17:02;6.10;99.90
14378;DHT22;7272;53.668;9.578;2024-03-08T09:20:04;6.20;99.90
14378;DHT22;7272;53.668;9.578;2024-03-08T09:23:05;6.40;99.90
14378;DHT22;7272;53.668;9.578;2024-03-08T09:26:07;6.50;99.90
14378;DHT22;7272;53.668;9.578;2024-03-08T09:29:09;6.60;99.90
14378;DHT22;7272;53.668;9.578;2024-03-08T09:32:12;6.70;99.90
14378;DHT22;7272;53.668;9.578;2024-03-08T09:35:13;6.80;99.90
14378;DHT22;7272;53.668;9.578;2024-03-08T09:38:15;6.90;99.90
14378;DHT22;7272;53.668;9.578;2024-03-08T09:41:17;7.00;99.90
14378;DHT22;7272;53.668;9.578;2024-03-08T09:44:19;7.00;99.90
14378;DHT22;7272;53.668;9.578;2024-03-08T09:47:22;7.00;99.90
14378;DHT22;7272;53.668;9.578;2024-03-08T09:50:27;7.20;99.90
14378;DHT22;7272;53.668;9.578;2024-03-08T09:53:30;7.40;99.90
14378;DHT22;7272;53.668;9.578;2024-03-08T09:56:32;7.50;99.90
14378;DHT22;7272;53.668;9.578;2024-03-08T09:59:34;7.70;99.90
14378;DHT22;7272;53.668;9.578;2024-03-08T10:02:50;7.80;99.90
14378;DHT22;7272;53.668;9.578;2024-03-08T10:05:52;7.90;99.90
14378;DHT22;7272;53.668;9.578;2024-03-08T10:08:54;8.10;99.90
14378;DHT22;7272;53.668;9.578;2024-03-08T10:11:57;8.20;99.90
14378;DHT22;7272;53.668;9.578;2024-03-08T10:14:59;8.20;99.90
14378;DHT22;7272;53.668;9.578;2024-03-08T10:18:01;8.20;99.90
14378;DHT22;7272;53.668;9.578;2024-03-08T10:21:04;8.20;99.90
14378;DHT22;7272;53.668;9.578;2024-03-08T10:24:05;8.30;99.90
14378;DHT22;7272;53.668;9.578;2024-03-08T10:27:11;8.40;99.90
14378;DHT22;7272;53.668;9.578;2024-03-08T10:30:14;8.40;99.90
14378;DHT22;7272;53.668;9.578;2024-03-08T10:33:16;8.50;99.90
14378;DHT22;7272;53.668;9.578;2024-03-08T10:36:18;8.60;99.90
14378;DHT22;7272;53.668;9.578;2024-03-08T10:39:22;8.70;99.90
14378;DHT22;7272;53.668;9.578;2024-03-08T10:42:28;8.80;99.90
14378;DHT22;7272;53.668;9.578;2024-03-08T10:45:31;8.80;99.90
14378;DHT22;7272;53.668;9.578;2024-03-08T10:48:39;8.90;99.90
14378;DHT22;7272;53.668;9.578;2024-03-08T10:51:44;9.00;99.90
14378;DHT22;7272;53.668;9.578;2024-03-08T10:54:47;9.10;99.90
14378;DHT22;7272;53.668;9.578;2024-03-08T10:57:49;9.10;99.90
14378;DHT22;7272;53.668;9.578;2024-03-08T11:00:51;9.10;99.90
14378;DHT22;7272;53.668;9.578;2024-03-08T11:03:54;9.10;99.90
14378;DHT22;7272;53.668;9.578;2024-03-08T11:07:00;9.30;99.90
14378;DHT22;7272;53.668;9.578;2024-03-08T11:10:04;9.30;99.90
14378;DHT22;7272;53.668;9.578;2024-03-08T11:13:33;9.30;99.90
14378;DHT22;7272;53.668;9.578;2024-03-08T11:16:38;9.60;99.90
14378;DHT22;7272;53.668;9.578;2024-03-08T11:19:46;9.70;99.90
14378;DHT22;7272;53.668;9.578;2024-03-08T11:22:49;9.70;99.90
14378;DHT22;7272;53.668;9.578;2024-03-08T11:25:52;9.70;99.90
14378;DHT22;7272;53.668;9.578;2024-03-08T11:28:54;9.70;99.90
14378;DHT22;7272;53.668;9.578;2024-03-08T11:32:04;9.80;99.90
14378;DHT22;7272;53.668;9.578;2024-03-08T11:35:07;9.80;99.90
14378;DHT22;7272;53.668;9.578;2024-03-08T11:38:09;9.80;99.90
14378;DHT22;7272;53.668;9.578;2024-03-08T11:41:10;9.80;99.90
14378;DHT22;7272;53.668;9.578;2024-03-08T11:44:15;9.80;99.90
14378;DHT22;7272;53.668;9.578;2024-03-08T11:47:17;9.90;99.90
14378;DHT22;7272;53.668;9.578;2024-03-08T11:50:19;9.90;99.90
14378;DHT22;7272;53.668;9.578;2024-03-08T11:53:21;9.80;99.90
14378;DHT22;7272;53.668;9.578;2024-03-08T11:56:23;9.90;99.90
14378;DHT22;7272;53.668;9.578;2024-03-08T11:59:24;9.90;99.90
14378;DHT22;7272;53.668;9.578;2024-03-08T12:02:27;10.00;99.90
14378;DHT22;7272;53.668;9.578;2024-03-08T12:05:30;10.20;99.90
14378;DHT22;7272;53.668;9.578;2024-03-08T12:08:32;10.20;99.90
14378;DHT22;7272;53.668;9.578;2024-03-08T12:11:33;10.20;99.90
14378;DHT22;7272;53.668;9.578;2024-03-08T12:14:35;10.20;99.90
14378;DHT22;7272;53.668;9.578;2024-03-08T12:17:38;10.30;99.90
14378;DHT22;7272;53.668;9.578;2024-03-08T12:20:39;10.40;99.90
14378;DHT22;7272;53.668;9.578;2024-03-08T12:23:44;10.40;99.90
14378;DHT22;7272;53.668;9.578;2024-03-08T12:26:46;10.40;99.90
14378;DHT22;7272;53.668;9.578;2024-03-08T12:29:49;10.40;99.90
14378;DHT22;7272;53.668;9.578;2024-03-08T12:32:54;10.50;99.90
14378;DHT22;7272;53.668;9.578;2024-03-08T12:35:57;10.50;99.90
14378;DHT22;7272;53.668;9.578;2024-03-08T12:38:59;10.60;99.90
14378;DHT22;7272;53.668;9.578;2024-03-08T12:42:00;10.60;99.90
14378;DHT22;7272;53.668;9.578;2024-03-08T12:45:02;10.70;99.90
14378;DHT22;7272;53.668;9.578;2024-03-08T12:48:12;10.60;99.90
14378;DHT22;7272;53.668;9.578;2024-03-08T12:51:15;10.60;99.90
14378;DHT22;7272;53.668;9.578;2024-03-08T12:54:16;10.60;99.90
14378;DHT22;7272;53.668;9.578;2024-03-08T12:57:18;10.50;99.90
14378;DHT22;7272;53.668;9.578;2024-03-08T13:00:20;10.70;99.90
14378;DHT22;7272;53.668;9.578;2024-03-08T13:03:21;10.80;99.90
14378;DHT22;7272;53.668;9.578;2024-03-08T13:06:23;10.80;99.90
14378;DHT22;7272;53.668;9.578;2024-03-08T13:09:25;10.80;99.90
14378;DHT22;7272;53.668;9.578;2024-03-08T13:12:28;10.80;99.90
14378;DHT22;7272;53.668;9.578;2024-03-08T13:15:30;10.70;99.90
14378;DHT22;7272;53.668;9.578;2024-03-08T13:18:31;10.70;99.90
14378;DHT22;7272;53.668;9.578;2024-03-08T13:21:32;10.80;99.90
14378;DHT22;7272;53.668;9.578;2024-03-08T13:24:33;10.80;99.90
14378;DHT22;7272;53.668;9.578;2024-03-08T13:27:35;10.90;99.90
14378;DHT22;7272;53.668;9.578;2024-03-08T13:30:38;11.00;99.90
14378;DHT22;7272;53.668;9.578;2024-03-08T13:33:39;11.00;99.90
14378;DHT22;7272;53.668;9.578;2024-03-08T13:36:41;11.10;99.90
14378;DHT22;7272;53.668;9.578;2024-03-08T13:39:44;11.00;99.90
14378;DHT22;7272;53.668;9.578;2024-03-08T13:42:46;11.00;99.90
14378;DHT22;7272;53.668;9.578;2024-03-08T13:45:49;11.00;99.90
14378;DHT22;7272;53.668;9.578;2024-03-08T13:48:50;11.00;99.90
14378;DHT22;7272;53.668;9.578;2024-03-08T13:51:54;10.90;99.90
14378;DHT22;7272;53.668;9.578;2024-03-08T13:54:55;10.90;99.90
14378;DHT22;7272;53.668;9.578;2024-03-08T13:57:57;11.10;99.90
14378;DHT22;7272;53.668;9.578;2024-03-08T14:01:00;11.20;99.90
14378;DHT22;7272;53.668;9.578;2024-03-08T14:04:04;11.20;99.90
14378;DHT22;7272;53.668;9.578;2024-03-08T14:07:05;11.30;99.90
14378;DHT22;7272;53.668;9.578;2024-03-08T14:10:09;11.30;99.90
14378;DHT22;7272;53.668;9.578;2024-03-08T14:13:10;11.50;99.90
14378;DHT22;7272;53.668;9.578;2024-03-08T14:16:13;11.50;99.90
14378;DHT22;7272;53.668;9.578;2024-03-08T14:19:14;11.40;99.90
14378;DHT22;7272;53.668;9.578;2024-03-08T14:22:16;11.30;99.90
14378;DHT22;7272;53.668;9.578;2024-03-08T14:25:17;11.20;99.90
14378;DHT22;7272;53.668;9.578;2024-03-08T14:28:18;11.30;99.90
14378;DHT22;7272;53.668;9.578;2024-03-08T14:31:20;11.30;99.90
14378;DHT22;7272;53.668;9.578;2024-03-08T14:34:24;11.30;99.90
14378;DHT22;7272;53.668;9.578;2024-03-08T14:37:27;11.40;99.90
14378;DHT22;7272;53.668;9.578;2024-03-08T14:40:30;11.20;99.90
14378;DHT22;7272;53.668;9.578;2024-03-08T14:43:31;11.30;99.90
14378;DHT22;7272;53.668;9.578;2024-03-08T14:46:33;11.20;99.90
14378;DHT22;7272;53.668;9.578;2024-03-08T14:49:34;11.00;99.90
14378;DHT22;7272;53.668;9.578;2024-03-08T14:52:37;10.90;99.90
14378;DHT22;7272;53.668;9.578;2024-03-08T14:55:40;10.90;99.90
14378;DHT22;7272;53.668;9.578;2024-03-08T14:58:41;10.80;99.90
14378;DHT22;7272;53.668;9.578;2024-03-08T15:01:45;10.70;99.90
14378;DHT22;7272;53.668;9.578;2024-03-08T15:04:47;10.60;99.90
14378;DHT22;7272;53.668;9.578;2024-03-08T15:07:57;10.60;99.90
14378;DHT22;7272;53.668;9.578;2024-03-08T15:10:59;10.60;99.90
14378;DHT22;7272;53.668;9.578;2024-03-08T15:14:00;10.60;99.90
14378;DHT22;7272;53.668;9.578;2024-03-08T15:17:03;10.60;99.90
14378;DHT22;7272;53.668;9.578;2024-03-08T15:20:11;10.70;99.90
14378;DHT22;7272;53.668;9.578;2024-03-08T15:23:17;10.70;99.90
14378;DHT22;7272;53.668;9.578;2024-03-08T15:26:18;10.70;99.90
14378;DHT22;7272;53.668;9.578;2024-03-08T15:29:19;10.70;99.90
14378;DHT22;7272;53.668;9.578;2024-03-08T15:32:27;10.70;99.90
14378;DHT22;7272;53.668;9.578;2024-03-08T15:35:33;10.40;99.90
14378;DHT22;7272;53.668;9.578;2024-03-08T15:38:34;10.40;99.90
14378;DHT22;7272;53.668;9.578;2024-03-08T15:41:35;10.30;99.90
14378;DHT22;7272;53.668;9.578;2024-03-08T15:44:37;10.20;99.90
14378;DHT22;7272;53.668;9.578;2024-03-08T15:47:40;10.10;99.90
14378;DHT22;7272;53.668;9.578;2024-03-08T15:50:41;10.20;99.90
14378;DHT22;7272;53.668;9.578;2024-03-08T15:53:42;10.20;99.90
14378;DHT22;7272;53.668;9.578;2024-03-08T15:56:45;10.10;99.90
14378;DHT22;7272;53.668;9.578;2024-03-08T15:59:46;10.10;99.90
14378;DHT22;7272;53.668;9.578;2024-03-08T16:02:48;10.10;99.90
14378;DHT22;7272;53.668;9.578;2024-03-08T16:05:51;10.00;99.90
14378;DHT22;7272;53.668;9.578;2024-03-08T16:08:54;9.90;99.90
14378;DHT22;7272;53.668;9.578;2024-03-08T16:11:56;9.70;99.90
14378;DHT22;7272;53.668;9.578;2024-03-08T16:14:58;9.60;99.90
14378;DHT22;7272;53.668;9.578;2024-03-08T16:18:00;9.50;99.90
14378;DHT22;7272;53.668;9.578;2024-03-08T16:21:06;9.50;99.90
14378;DHT22;7272;53.668;9.578;2024-03-08T16:24:08;9.50;99.90
14378;DHT22;7272;53.668;9.578;2024-03-08T16:27:10;9.40;99.90
14378;DHT22;7272;53.668;9.578;2024-03-08T16:30:12;9.40;99.90
14378;DHT22;7272;53.668;9.578;2024-03-08T16:33:17;9.40;99.90
14378;DHT22;7272;53.668;9.578;2024-03-08T16:36:18;9.20;99.90
14378;DHT22;7272;53.668;9.578;2024-03-08T16:39:20;9.10;99.90
14378;DHT22;7272;53.668;9.578;2024-03-08T16:42:21;8.90;99.90
14378;DHT22;7272;53.668;9.578;2024-03-08T16:45:23;8.80;99.90
14378;DHT22;7272;53.668;9.578;2024-03-08T16:48:25;8.80;99.90
14378;DHT22;7272;53.668;9.578;2024-03-08T16:51:26;8.80;99.90
14378;DHT22;7272;53.668;9.578;2024-03-08T16:54:27;8.70;99.90
14378;DHT22;7272;53.668;9.578;2024-03-08T16:57:28;8.60;99.90
14378;DHT22;7272;53.668;9.578;2024-03-08T17:00:32;8.50;99.90
14378;DHT22;7272;53.668;9.578;2024-03-08T17:03:34;8.50;99.90
14378;DHT22;7272;53.668;9.578;2024-03-08T17:06:37;8.40;99.90
14378;DHT22;7272;53.668;9.578;2024-03-08T17:09:39;8.30;99.90
14378;DHT22;7272;53.668;9.578;2024-03-08T17:12:41;8.20;99.90
14378;DHT22;7272;53.668;9.578;2024-03-08T17:15:43;8.10;99.90
14378;DHT22;7272;53.668;9.578;2024-03-08T17:18:45;7.90;99.90
14378;DHT22;7272;53.668;9.578;2024-03-08T17:21:46;7.80;99.90
14378;DHT22;7272;53.668;9.578;2024-03-08T17:24:50;7.70;99.90
14378;DHT22;7272;53.668;9.578;2024-03-08T17:27:52;7.60;99.90
14378;DHT22;7272;53.668;9.578;2024-03-08T17:30:55;7.50;99.90
14378;DHT22;7272;53.668;9.578;2024-03-08T17:33:56;7.40;99.90
14378;DHT22;7272;53.668;9.578;2024-03-08T17:36:58;7.30;99.90
14378;DHT22;7272;53.668;9.578;2024-03-08T17:39:59;7.20;99.90
14378;DHT22;7272;53.668;9.578;2024-03-08T17:43:00;7.10;99.90
14378;DHT22;7272;53.668;9.578;2024-03-08T17:46:04;7.10;99.90
14378;DHT22;7272;53.668;9.578;2024-03-08T17:49:06;7.00;99.90
14378;DHT22;7272;53.668;9.578;2024-03-08T17:52:07;6.90;99.90
14378;DHT22;7272;53.668;9.578;2024-03-08T17:55:10;6.80;99.90
14378;DHT22;7272;53.668;9.578;2024-03-08T18:02:21;6.70;99.90
14378;DHT22;7272;53.668;9.578;2024-03-08T18:05:24;6.60;99.90
14378;DHT22;7272;53.668;9.578;2024-03-08T18:08:27;6.50;99.90
14378;DHT22;7272;53.668;9.578;2024-03-08T18:11:29;6.40;99.90
14378;DHT22;7272;53.668;9.578;2024-03-08T18:14:30;6.30;99.90
14378;DHT22;7272;53.668;9.578;2024-03-08T18:17:33;6.30;99.90
14378;DHT22;7272;53.668;9.578;2024-03-08T18:20:35;6.30;99.90
14378;DHT22;7272;53.668;9.578;2024-03-08T18:23:45;6.20;99.90
14378;DHT22;7272;53.668;9.578;2024-03-08T18:26:46;6.20;99.90
14378;DHT22;7272;53.668;9.578;2024-03-08T18:29:47;6.10;99.90
14378;DHT22;7272;53.668;9.578;2024-03-08T18:32:48;6.10;99.90
14378;DHT22;7272;53.668;9.578;2024-03-08T18:35:50;6.00;99.90
14378;DHT22;7272;53.668;9.578;2024-03-08T18:38:52;6.00;99.90
14378;DHT22;7272;53.668;9.578;2024-03-08T18:41:53;5.90;99.90
14378;DHT22;7272;53.668;9.578;2024-03-08T18:44:55;5.90;99.90
14378;DHT22;7272;53.668;9.578;2024-03-08T18:47:57;5.90;99.90
14378;DHT22;7272;53.668;9.578;2024-03-08T18:50:59;5.80;99.90
14378;DHT22;7272;53.668;9.578;2024-03-08T18:54:01;5.80;99.90
14378;DHT22;7272;53.668;9.578;2024-03-08T18:57:04;5.80;99.90
14378;DHT22;7272;53.668;9.578;2024-03-08T19:00:07;5.80;99.90
14378;DHT22;7272;53.668;9.578;2024-03-08T19:03:14;5.70;99.90
14378;DHT22;7272;53.668;9.578;2024-03-08T19:06:16;5.70;99.90
14378;DHT22;7272;53.668;9.578;2024-03-08T19:09:18;5.60;99.90
14378;DHT22;7272;53.668;9.578;2024-03-08T19:12:20;5.60;99.90
14378;DHT22;7272;53.668;9.578;2024-03-08T19:15:22;5.50;99.90
14378;DHT22;7272;53.668;9.578;2024-03-08T19:18:24;5.50;99.90
14378;DHT22;7272;53.668;9.578;2024-03-08T19:21:27;5.50;99.90
14378;DHT22;7272;53.668;9.578;2024-03-08T19:24:29;5.40;99.90
14378;DHT22;7272;53.668;9.578;2024-03-08T19:27:30;5.40;99.90
14378;DHT22;7272;53.668;9.578;2024-03-08T19:30:32;5.40;99.90
14378;DHT22;7272;53.668;9.578;2024-03-08T19:33:36;5.40;99.90
14378;DHT22;7272;53.668;9.578;2024-03-08T19:36:38;5.40;99.90
14378;DHT22;7272;53.668;9.578;2024-03-08T19:39:40;5.30;99.90
14378;DHT22;7272;53.668;9.578;2024-03-08T19:42:41;5.30;99.90
14378;DHT22;7272;53.668;9.578;2024-03-08T19:45:46;5.30;99.90
14378;DHT22;7272;53.668;9.578;2024-03-08T19:48:47;5.20;99.90